Atkins, South Carolina
Current Conditions -  °F | °C
As of 3:35 PM on Monday 24 Nov 2014 (Local Time) from KSMS Reporting Station
Scattered Clouds Scattered Clouds  
Wind Chill: 72°   Ceiling: Unl
Heat Index: 72°   Visibility: 10mi
Dew Point: 68°   Wind: 7mph
Humidity: 88%   Direction: 180°S
Pressure: 29.83"   Gusts: NA
Location:  34.0395°N, 80.1095°W
Report Text: KSMS 242035Z AUTO 18006KT 10SM SCT012 SCT019 22/20 A2983 RMK AO2 LTG DSNT NE
Loading
Personal Weather Stations






























Interactive Weather Map New forecast layout! Learn more

10-Day Weather Forecast

Advertisements
Track Severe Weather on mobile